East Corinth, ME

1:34 AM EDT on August 28, 2016 (GMT -0400)
Stonyvale Farms | | Change Station

Elev 269 ft 44.95 °N, 69.12 °W | Updated 14 minutes ago

Clear
Clear
56.5 °F
Feels Like 56.5 °F
N
0.0
Wind Variable Wind from SE
Gusts 1.0 mph

Today
High -- | Low -- °F
--% Chance of Precip.
Yesterday
High -- | Low -- °F
Precip. -- in
Pressure 30.28 in
Visibility 10.0 miles
Clouds Clear
Dew Point 54 °F
Humidity 92%
Rainfall 0.00 in
Snow Depth Not available.
5:53 AM 7:19 PM
Waning Crescent, 18% visible
METAR KBGR 280453Z 00000KT 10SM CLR 14/13 A3029 RMK AO2 SLP252 T01390128 402720139
Pressure 30.28 in
Visibility 10.0 miles
Clouds Clear
Dew Point 54 °F
Humidity 92%
Rainfall 0.00 in
Snow Depth Not available.
5:53 AM 7:19 PM
Waning Crescent, 18% visible
METAR KBGR 280453Z 00000KT 10SM CLR 14/13 A3029 RMK AO2 SLP252 T01390128 402720139

10-Day Weather Forecast

Almanac

Astronomy

Aug. 28, 2016 Rise Set
Actual Time
Civil Twilight
Nautical Twilight
Astronomical Twilight
Moon
Length of Visible Light
Length of Day
Tomorrow will be .
, % of the Moon is Illuminated

Today's Extremes

State Highs State Lows

Community

WunderPhotos

Upload Photos

1,935,531 photos uploaded!

WunderBlog® & News

Nearby

Air Quality

  Air Quality AQ Index Pollutant
Not available.

Snow Depth

Station Depth Elevation

Earthquake Activity

City Distance Mag. Time & Date
Minimum magnitude displayed is 2.5.

Coastal Water Temperatures

Place Temperature

Stations

Nearby Weather Stations

Station Location Temp. Windchill Dew Point Humidity Wind Precip. Elev Updated Type
                   

Watches & Warnings

There are currently no watches in effect.